Time;durP1;ratioP1;P1;durP2;ratioP2;P2;SDS_P1;SDS_P2;PMS_P1;PMS_P2;Temp;Humidity;BMP_temperature;BMP_pressure;BME280_temperature;BME280_humidity;BME280_pressure;Samples;Min_cycle;Max_cycle;Signal;HPM_P1;HPM_P2
2023/08/02 00:02:20;;;;;;;14.52;13.75;;;16.00;98.60;;;;;;5033287;28;20033;-77
2023/08/02 00:04:46;;;;;;;15.05;14.32;;;15.90;99.90;;;;;;5036641;28;20034;-77
2023/08/02 00:07:12;;;;;;;14.10;13.40;;;15.80;99.90;;;;;;5037871;28;20034;-78
2023/08/02 00:09:38;;;;;;;14.65;13.95;;;15.80;99.90;;;;;;5035438;28;20036;-78
2023/08/02 00:12:05;;;;;;;15.07;14.32;;;15.70;99.90;;;;;;5038976;28;20033;-79
2023/08/02 00:14:31;;;;;;;14.77;14.18;;;15.60;99.90;;;;;;5033613;28;20029;-76
2023/08/02 00:16:57;;;;;;;14.60;14.00;;;15.60;99.90;;;;;;5035468;28;20041;-77
2023/08/02 00:19:23;;;;;;;14.50;13.70;;;15.60;99.90;;;;;;5031600;28;20041;-77
2023/08/02 00:21:50;;;;;;;13.05;12.45;;;15.60;99.90;;;;;;5037954;28;20028;-80
2023/08/02 00:24:16;;;;;;;14.50;13.80;;;15.50;99.90;;;;;;5035016;28;20038;-77
2023/08/02 00:26:42;;;;;;;13.85;12.98;;;15.50;99.90;;;;;;5036412;28;20049;-77
2023/08/02 00:29:10;;;;;;;14.13;13.43;;;15.60;99.90;;;;;;5033226;28;20317;-77
2023/08/02 00:31:36;;;;;;;14.38;13.75;;;15.50;99.90;;;;;;5039466;28;20025;-77
2023/08/02 00:34:02;;;;;;;13.73;12.73;;;15.50;99.90;;;;;;5033372;28;20057;-77
2023/08/02 00:36:28;;;;;;;13.93;13.32;;;15.50;99.90;;;;;;5036261;28;20026;-78
2023/08/02 00:38:54;;;;;;;15.07;14.38;;;15.50;99.90;;;;;;5035509;28;20439;-78
2023/08/02 00:41:20;;;;;;;14.27;13.68;;;15.50;99.90;;;;;;5036022;28;20046;-76
2023/08/02 00:43:47;;;;;;;15.20;14.50;;;15.50;99.90;;;;;;5049844;28;20036;-77
2023/08/02 00:46:17;;;;;;;16.15;15.35;;;15.50;99.90;;;;;;5037642;28;20041;-77
2023/08/02 00:48:46;;;;;;;12.77;12.17;;;15.50;99.90;;;;;;5035360;28;20432;-77
2023/08/02 00:51:16;;;;;;;15.20;14.45;;;15.50;99.90;;;;;;5035033;28;20036;-78
2023/08/02 00:53:43;;;;;;;15.32;14.60;;;15.50;99.90;;;;;;5038976;28;20038;-78
2023/08/02 00:56:10;;;;;;;14.88;14.07;;;15.50;99.90;;;;;;5040183;28;20040;-77
2023/08/02 00:58:37;;;;;;;14.13;13.52;;;15.50;99.90;;;;;;5034432;28;20469;-78
2023/08/02 01:01:07;;;;;;;13.88;13.27;;;15.40;99.90;;;;;;5031176;28;20371;-79
2023/08/02 01:03:35;;;;;;;14.25;13.52;;;15.40;99.90;;;;;;5035726;28;20048;-78
2023/08/02 01:06:25;;;;;;;14.00;13.20;;;15.40;99.90;;;;;;5051908;28;20044;-76
2023/08/02 01:08:59;;;;;;;14.17;13.47;;;15.40;99.90;;;;;;5034195;28;20052;-77
2023/08/02 01:11:46;;;;;;;15.00;14.30;;;15.40;99.90;;;;;;5033260;28;20029;-77
2023/08/02 01:14:18;;;;;;;14.93;14.23;;;15.30;99.90;;;;;;5039878;28;20489;-78
2023/08/02 01:16:46;;;;;;;14.52;13.82;;;15.30;99.90;;;;;;5052513;28;20053;-79
2023/08/02 01:19:12;;;;;;;13.68;13.07;;;15.30;99.90;;;;;;5035592;28;20040;-77
2023/08/02 01:21:38;;;;;;;14.40;13.80;;;15.30;99.90;;;;;;5044869;28;20029;-77
2023/08/02 01:24:07;;;;;;;15.98;14.98;;;15.30;99.90;;;;;;5044349;28;20041;-79
2023/08/02 01:26:36;;;;;;;13.65;13.02;;;15.30;99.90;;;;;;5039457;28;20489;-79
2023/08/02 01:29:05;;;;;;;12.00;11.50;;;15.30;99.90;;;;;;5039922;28;20037;-78
2023/08/02 01:31:33;;;;;;;14.23;13.52;;;15.20;99.90;;;;;;5040427;28;20026;-79
2023/08/02 01:34:00;;;;;;;15.57;14.57;;;15.20;99.90;;;;;;5054536;28;20129;-79
2023/08/02 01:36:26;;;;;;;15.25;14.65;;;15.20;99.90;;;;;;5039613;28;20030;-79
2023/08/02 01:38:52;;;;;;;13.85;13.25;;;15.20;99.90;;;;;;5039591;28;21118;-78
2023/08/02 01:41:18;;;;;;;14.90;14.20;;;15.30;99.90;;;;;;5037788;28;20041;-79
2023/08/02 01:43:44;;;;;;;15.05;14.13;;;15.30;99.90;;;;;;5035258;28;20033;-79
2023/08/02 01:46:11;;;;;;;15.02;14.23;;;15.30;99.90;;;;;;5051846;28;20033;-77
2023/08/02 01:48:37;;;;;;;14.75;14.02;;;15.30;99.90;;;;;;5039156;28;20033;-77
2023/08/02 01:51:03;;;;;;;13.77;13.18;;;15.30;99.90;;;;;;5035835;28;20044;-79
2023/08/02 01:53:29;;;;;;;12.55;11.95;;;15.20;99.90;;;;;;5052013;28;20136;-77
2023/08/02 01:55:56;;;;;;;14.43;13.73;;;15.20;99.90;;;;;;5043019;28;20465;-78
2023/08/02 01:58:22;;;;;;;15.07;14.27;;;15.10;99.90;;;;;;5057873;28;20068;-76
2023/08/02 02:00:48;;;;;;;14.95;14.23;;;15.10;99.90;;;;;;5054002;28;20052;-77
2023/08/02 02:03:14;;;;;;;14.85;14.15;;;15.10;99.90;;;;;;5041556;28;20042;-76
2023/08/02 02:05:41;;;;;;;15.55;14.82;;;15.00;99.90;;;;;;5056360;28;20060;-76
2023/08/02 02:08:07;;;;;;;13.95;13.23;;;15.00;99.90;;;;;;5051172;28;20041;-76
2023/08/02 02:10:33;;;;;;;14.48;13.85;;;14.90;99.90;;;;;;5040772;28;20041;-78
2023/08/02 02:13:00;;;;;;;15.23;14.52;;;14.80;99.90;;;;;;5040987;28;20040;-78
2023/08/02 02:15:26;;;;;;;15.02;14.32;;;14.80;99.90;;;;;;5044162;28;20036;-78
2023/08/02 02:17:53;;;;;;;14.23;13.63;;;14.80;99.90;;;;;;5041480;28;20041;-78
2023/08/02 02:20:19;;;;;;;16.48;15.48;;;14.80;99.90;;;;;;5045356;28;20033;-79
2023/08/02 02:22:45;;;;;;;16.48;15.68;;;14.80;99.90;;;;;;5041108;28;20052;-79
2023/08/02 02:25:11;;;;;;;15.30;14.60;;;14.90;99.90;;;;;;5032894;28;20041;-78
2023/08/02 02:27:37;;;;;;;16.40;15.48;;;14.90;99.90;;;;;;5035466;28;20052;-79
2023/08/02 02:30:04;;;;;;;15.00;14.30;;;14.80;99.90;;;;;;5037403;28;20045;-78
2023/08/02 02:32:30;;;;;;;14.43;13.82;;;14.80;99.90;;;;;;5041125;28;20025;-78
2023/08/02 02:34:57;;;;;;;16.35;15.65;;;14.80;99.90;;;;;;5033495;28;20037;-78
2023/08/02 02:37:23;;;;;;;15.30;14.60;;;14.80;99.90;;;;;;5051540;28;20029;-78
2023/08/02 02:39:50;;;;;;;16.15;15.45;;;14.80;99.90;;;;;;5055516;28;20041;-78
2023/08/02 02:42:16;;;;;;;14.90;14.20;;;14.80;99.90;;;;;;5041052;28;20025;-78
2023/08/02 02:44:43;;;;;;;15.80;15.00;;;14.80;99.90;;;;;;5036521;28;20447;-79
2023/08/02 02:47:10;;;;;;;15.57;14.88;;;14.80;99.90;;;;;;5036331;28;20401;-79
2023/08/02 02:49:38;;;;;;;14.98;14.27;;;14.80;99.90;;;;;;5033030;28;20045;-79
2023/08/02 02:52:05;;;;;;;15.98;14.90;;;14.80;99.90;;;;;;5034999;28;20043;-78
2023/08/02 02:54:31;;;;;;;15.15;14.50;;;14.80;99.90;;;;;;5036833;28;20042;-78
2023/08/02 02:56:57;;;;;;;15.95;15.25;;;14.80;99.90;;;;;;5034230;28;20034;-78
2023/08/02 02:59:23;;;;;;;15.90;15.02;;;14.80;99.90;;;;;;5035629;28;20041;-78
2023/08/02 03:01:50;;;;;;;14.55;13.85;;;14.80;99.90;;;;;;5046076;28;20033;-78
2023/08/02 03:04:17;;;;;;;15.82;15.05;;;14.90;99.90;;;;;;5037362;28;20033;-78
2023/08/02 03:06:43;;;;;;;14.35;13.73;;;15.10;99.90;;;;;;5034849;28;20048;-79
2023/08/02 03:09:09;;;;;;;14.93;14.23;;;15.20;99.90;;;;;;5032897;28;20033;-79
2023/08/02 03:11:35;;;;;;;14.52;13.82;;;15.40;99.90;;;;;;5039231;28;20029;-79
2023/08/02 03:14:01;;;;;;;14.50;13.80;;;15.50;99.90;;;;;;5035796;28;20037;-78
2023/08/02 03:16:27;;;;;;;14.15;13.50;;;15.70;99.90;;;;;;5038165;28;20030;-78
2023/08/02 03:18:54;;;;;;;13.98;13.38;;;15.70;99.90;;;;;;5036890;28;20067;-77
2023/08/02 03:21:21;;;;;;;13.63;12.82;;;15.80;99.90;;;;;;5035945;28;20101;-77
2023/08/02 03:23:47;;;;;;;13.88;13.27;;;15.90;99.90;;;;;;5038703;28;20052;-77
2023/08/02 03:26:13;;;;;;;13.70;13.10;;;16.00;98.30;;;;;;5038541;28;20398;-78
2023/08/02 03:28:39;;;;;;;13.57;12.98;;;16.00;91.00;;;;;;5033822;28;20033;-77
2023/08/02 03:31:05;;;;;;;13.02;12.38;;;16.10;86.10;;;;;;5032837;28;20030;-77
2023/08/02 03:33:31;;;;;;;14.02;13.32;;;16.10;76.30;;;;;;5035192;28;20032;-76
2023/08/02 03:35:57;;;;;;;11.95;11.35;;;16.10;77.00;;;;;;5037386;28;20470;-77
2023/08/02 03:38:24;;;;;;;13.85;13.25;;;16.10;69.30;;;;;;5036820;28;20477;-78
2023/08/02 03:40:50;;;;;;;14.15;13.55;;;16.20;60.50;;;;;;5041361;28;20037;-77
2023/08/02 03:43:16;;;;;;;13.07;12.43;;;16.30;45.10;;;;;;5040323;28;20025;-77
2023/08/02 03:45:42;;;;;;;14.10;13.52;;;16.30;41.20;;;;;;5034899;28;20075;-77
2023/08/02 03:48:08;;;;;;;14.60;14.00;;;16.40;33.30;;;;;;5035915;28;20032;-78
2023/08/02 03:50:35;;;;;;;13.27;12.70;;;16.40;32.70;;;;;;5032964;28;20037;-78
2023/08/02 03:53:01;;;;;;;14.05;13.35;;;16.40;26.30;;;;;;5032457;28;20063;-78
2023/08/02 03:55:27;;;;;;;13.05;12.55;;;16.40;24.80;;;;;;5036302;28;20447;-77
2023/08/02 03:57:53;;;;;;;15.13;14.50;;;16.40;24.00;;;;;;5037718;28;20406;-77
2023/08/02 04:00:19;;;;;;;14.30;13.70;;;16.40;22.50;;;;;;5036226;28;20773;-74
2023/08/02 04:02:45;;;;;;;15.15;14.50;;;16.40;26.80;;;;;;5035623;28;20409;-75
2023/08/02 04:05:11;;;;;;;14.13;13.52;;;16.40;26.00;;;;;;5046714;28;20402;-76
2023/08/02 04:07:38;;;;;;;12.82;12.23;;;16.40;26.10;;;;;;5039122;28;20052;-76
2023/08/02 04:10:04;;;;;;;13.52;12.75;;;16.40;27.50;;;;;;5038387;28;20052;-77
2023/08/02 04:12:30;;;;;;;13.10;12.50;;;16.50;17.70;;;;;;5039594;28;20037;-77
2023/08/02 04:14:57;;;;;;;13.48;12.88;;;16.50;16.80;;;;;;5038508;28;20045;-76
2023/08/02 04:17:25;;;;;;;12.48;11.98;;;16.50;14.80;;;;;;5032552;28;20033;-76
2023/08/02 04:19:51;;;;;;;12.88;12.35;;;16.50;23.30;;;;;;5034979;28;20036;-76
2023/08/02 04:22:17;;;;;;;13.02;12.43;;;16.50;20.60;;;;;;5038527;28;20029;-78
2023/08/02 04:24:43;;;;;;;13.40;12.80;;;16.50;23.50;;;;;;5034798;28;20041;-77
2023/08/02 04:27:10;;;;;;;11.98;11.48;;;16.60;17.20;;;;;;5049863;28;20044;-78
2023/08/02 04:29:36;;;;;;;11.63;11.13;;;16.60;17.70;;;;;;5035245;28;20482;-78
2023/08/02 04:32:02;;;;;;;12.27;11.68;;;16.60;10.20;;;;;;5040171;28;20378;-79
2023/08/02 04:34:29;;;;;;;13.43;12.65;;;16.60;12.30;;;;;;5036726;28;20040;-78
2023/08/02 04:36:55;;;;;;;12.55;12.00;;;16.70;11.20;;;;;;5031341;28;20045;-77
2023/08/02 04:39:21;;;;;;;13.40;12.70;;;16.70;18.60;;;;;;5031269;28;20033;-77
2023/08/02 04:41:50;;;;;;;12.63;12.07;;;16.70;21.00;;;;;;5031297;28;20037;-77
2023/08/02 04:44:16;;;;;;;12.00;11.40;;;16.70;20.60;;;;;;5031454;28;20448;-78
2023/08/02 04:46:42;;;;;;;11.98;11.38;;;16.70;27.40;;;;;;5032699;28;20048;-76
2023/08/02 04:49:08;;;;;;;13.60;12.85;;;16.70;47.60;;;;;;5033242;28;20040;-79
2023/08/02 04:51:36;;;;;;;13.10;12.50;;;16.70;68.50;;;;;;5049815;28;20049;-76
2023/08/02 04:54:03;;;;;;;13.90;13.20;;;16.60;96.30;;;;;;5034720;28;20029;-77
2023/08/02 04:56:30;;;;;;;12.63;11.98;;;16.60;99.90;;;;;;5037425;28;20408;-77
2023/08/02 04:58:56;;;;;;;13.77;13.07;;;16.50;99.90;;;;;;5033518;28;20143;-77
2023/08/02 05:01:22;;;;;;;13.10;12.50;;;16.60;99.90;;;;;;5047182;28;20049;-77
2023/08/02 05:03:48;;;;;;;14.43;13.80;;;16.50;99.90;;;;;;5033470;28;20031;-77
2023/08/02 05:06:14;;;;;;;15.40;14.70;;;16.50;99.90;;;;;;5038004;28;20044;-78
2023/08/02 05:08:40;;;;;;;14.77;14.15;;;16.40;99.90;;;;;;5031971;28;20042;-78
2023/08/02 05:11:07;;;;;;;12.75;11.85;;;16.40;99.90;;;;;;5033727;28;20029;-79
2023/08/02 05:13:34;;;;;;;12.30;11.80;;;16.30;99.90;;;;;;5036537;28;20029;-77
2023/08/02 05:16:01;;;;;;;14.40;13.70;;;16.20;99.90;;;;;;5034859;28;20037;-77
2023/08/02 05:18:27;;;;;;;11.88;11.38;;;16.10;99.90;;;;;;5034544;28;20025;-76
2023/08/02 05:20:53;;;;;;;13.63;13.02;;;16.00;99.90;;;;;;5034281;28;20026;-79
2023/08/02 05:23:19;;;;;;;14.25;13.55;;;16.00;99.90;;;;;;5034711;28;20486;-76
2023/08/02 05:25:46;;;;;;;13.65;13.05;;;15.90;99.90;;;;;;5032043;28;20049;-76
2023/08/02 05:28:12;;;;;;;12.88;12.30;;;15.80;99.90;;;;;;5029986;28;20045;-76
2023/08/02 05:30:38;;;;;;;14.30;13.50;;;15.70;99.90;;;;;;5037481;28;20041;-74
2023/08/02 05:33:06;;;;;;;14.15;13.48;;;15.70;99.90;;;;;;5035044;28;20029;-76
2023/08/02 05:35:32;;;;;;;13.70;13.05;;;15.60;1.00;;;;;;5032038;28;20029;-76
2023/08/02 05:37:58;;;;;;;13.85;13.18;;;15.60;1.00;;;;;;5030036;28;20026;-75
2023/08/02 05:40:25;;;;;;;13.32;12.73;;;15.60;1.00;;;;;;5030497;28;20044;-78
2023/08/02 05:42:51;;;;;;;15.45;14.43;;;15.60;1.00;;;;;;5029778;28;20045;-75
2023/08/02 05:45:17;;;;;;;13.90;13.05;;;15.60;1.00;;;;;;5032616;28;20105;-76
2023/08/02 05:47:43;;;;;;;13.57;12.98;;;15.60;1.00;;;;;;5036234;28;20034;-80
2023/08/02 05:50:09;;;;;;;13.15;12.35;;;15.50;1.00;;;;;;5037863;28;20474;-76
2023/08/02 05:52:35;;;;;;;14.25;13.57;;;15.50;1.00;;;;;;5035011;28;20041;-78
2023/08/02 05:55:02;;;;;;;14.43;13.73;;;15.50;1.00;;;;;;5035468;28;20037;-76
2023/08/02 05:57:28;;;;;;;13.75;13.05;;;15.40;1.00;;;;;;5033903;28;20029;-76
2023/08/02 05:59:54;;;;;;;13.43;12.65;;;15.50;1.00;;;;;;5030451;28;20045;-77
2023/08/02 06:02:20;;;;;;;14.30;13.60;;;15.50;1.00;;;;;;5038770;28;20490;-76
2023/08/02 06:04:46;;;;;;;14.27;13.48;;;15.50;1.00;;;;;;5050132;28;20044;-77
2023/08/02 06:07:12;;;;;;;14.57;13.68;;;15.40;18.70;;;;;;5037748;28;20044;-77
2023/08/02 06:09:38;;;;;;;15.20;14.40;;;15.40;33.50;;;;;;5033621;28;20034;-79
2023/08/02 06:12:05;;;;;;;14.75;14.02;;;15.40;57.60;;;;;;5033966;28;20037;-78
2023/08/02 06:14:31;;;;;;;15.27;14.48;;;15.40;88.00;;;;;;5036435;28;20037;-78
2023/08/02 06:16:57;;;;;;;15.43;14.55;;;15.40;99.90;;;;;;5037872;28;20041;-78
2023/08/02 06:19:23;;;;;;;17.20;16.17;;;15.40;99.90;;;;;;5034577;28;20038;-79
2023/08/02 06:21:49;;;;;;;17.33;16.40;;;15.40;99.90;;;;;;5036963;28;20029;-79
2023/08/02 06:24:16;;;;;;;16.92;15.82;;;15.40;99.90;;;;;;5034933;28;20402;-79
2023/08/02 06:26:42;;;;;;;16.65;15.85;;;15.40;99.90;;;;;;5034477;28;20034;-75
2023/08/02 06:29:09;;;;;;;16.77;15.88;;;15.40;99.90;;;;;;5035639;28;20428;-84
2023/08/02 06:31:35;;;;;;;16.70;15.75;;;15.40;99.90;;;;;;5037519;28;20033;-77
2023/08/02 06:34:01;;;;;;;17.70;16.52;;;15.40;99.90;;;;;;5039456;28;20033;-78
2023/08/02 06:36:27;;;;;;;16.35;15.48;;;15.50;99.90;;;;;;5036562;28;20032;-80
2023/08/02 06:38:53;;;;;;;17.70;16.80;;;15.50;99.90;;;;;;5032580;28;20033;-76
2023/08/02 06:41:20;;;;;;;16.67;15.85;;;15.50;99.90;;;;;;5030499;28;20040;-78
2023/08/02 06:43:46;;;;;;;16.52;15.70;;;15.50;99.90;;;;;;5036937;28;20044;-78
2023/08/02 06:46:12;;;;;;;15.25;14.45;;;15.50;99.90;;;;;;5036197;28;20056;-78
2023/08/02 06:48:39;;;;;;;16.38;15.25;;;15.50;99.90;;;;;;5033846;28;20115;-79
2023/08/02 06:51:05;;;;;;;15.77;14.88;;;15.50;99.90;;;;;;5033968;28;20060;-78
2023/08/02 06:53:31;;;;;;;16.10;15.30;;;15.50;99.90;;;;;;5038250;28;20354;-78
2023/08/02 06:55:57;;;;;;;16.00;15.20;;;15.50;99.90;;;;;;5036112;28;20033;-78
2023/08/02 06:58:23;;;;;;;16.08;15.18;;;15.50;99.90;;;;;;5028683;28;20379;-79
2023/08/02 07:00:49;;;;;;;15.45;14.65;;;15.50;99.90;;;;;;5031929;28;20057;-81
2023/08/02 07:03:15;;;;;;;15.15;14.35;;;15.50;99.90;;;;;;5038880;28;20037;-83
2023/08/02 07:05:42;;;;;;;15.00;14.30;;;15.50;99.90;;;;;;5037933;28;20036;-85
2023/08/02 07:08:08;;;;;;;16.25;15.45;;;15.50;99.90;;;;;;5033929;28;20037;-83
2023/08/02 07:10:34;;;;;;;15.65;14.80;;;15.50;99.90;;;;;;5034008;28;20506;-83
2023/08/02 07:13:00;;;;;;;14.55;13.85;;;15.50;99.90;;;;;;5038609;28;20029;-85
2023/08/02 07:15:26;;;;;;;16.30;15.50;;;15.50;99.90;;;;;;5037794;28;20044;-83
2023/08/02 07:17:52;;;;;;;16.52;15.73;;;15.60;99.90;;;;;;5036494;28;20045;-84
2023/08/02 07:20:18;;;;;;;16.98;16.23;;;15.60;99.90;;;;;;5036116;28;20041;-85
2023/08/02 07:22:45;;;;;;;15.80;15.15;;;15.70;99.90;;;;;;5031100;28;20045;-84
2023/08/02 07:25:13;;;;;;;14.57;13.88;;;15.70;99.90;;;;;;5050001;28;20053;-82
2023/08/02 07:27:40;;;;;;;15.75;14.88;;;15.70;99.90;;;;;;5036234;28;20042;-90
2023/08/02 07:30:07;;;;;;;17.63;16.73;;;15.70;99.90;;;;;;5041642;28;20029;-90
2023/08/02 07:32:33;;;;;;;16.88;16.02;;;15.70;99.90;;;;;;5035482;28;20040;-87
2023/08/02 07:34:59;;;;;;;18.25;17.45;;;15.70;99.90;;;;;;5034652;28;20044;-86
2023/08/02 07:37:26;;;;;;;18.25;17.45;;;15.70;99.90;;;;;;5052652;28;20041;-80
2023/08/02 07:39:52;;;;;;;16.90;16.02;;;15.70;99.90;;;;;;5037862;28;20032;-83
2023/08/02 07:42:18;;;;;;;18.00;17.15;;;15.80;99.90;;;;;;5039239;28;20040;-81
2023/08/02 07:45:01;;;;;;;16.48;15.55;;;15.80;99.90;;;;;;5040619;28;20036;-81
2023/08/02 07:47:27;;;;;;;17.42;16.73;;;15.80;99.90;;;;;;5029163;28;20037;-85
2023/08/02 07:49:53;;;;;;;16.58;15.65;;;15.80;99.90;;;;;;5023468;28;20033;-79
2023/08/02 07:52:19;;;;;;;18.55;17.75;;;15.90;99.90;;;;;;5040650;28;20029;-80
2023/08/02 07:54:45;;;;;;;17.77;16.77;;;15.90;99.90;;;;;;5037291;28;20034;-80
2023/08/02 07:57:11;;;;;;;17.15;16.15;;;15.90;99.90;;;;;;5040836;28;20034;-81
2023/08/02 07:59:38;;;;;;;14.57;13.90;;;15.90;99.90;;;;;;5047523;28;20491;-80
2023/08/02 08:02:04;;;;;;;15.18;14.48;;;15.90;99.90;;;;;;5034425;28;20459;-79
2023/08/02 08:04:30;;;;;;;15.57;14.88;;;15.90;99.90;;;;;;5030617;28;20034;-82
2023/08/02 08:06:56;;;;;;;15.50;14.77;;;15.90;99.90;;;;;;5036454;28;20033;-82
2023/08/02 08:09:24;;;;;;;14.13;13.43;;;16.00;99.90;;;;;;5031698;28;20038;-82
2023/08/02 08:11:50;;;;;;;14.98;14.20;;;16.10;99.90;;;;;;5037014;28;20462;-81
2023/08/02 08:14:16;;;;;;;14.55;13.85;;;16.10;99.90;;;;;;5034242;28;20060;-83
2023/08/02 08:16:42;;;;;;;15.60;14.80;;;16.20;99.90;;;;;;5036278;28;20037;-82
2023/08/02 08:19:08;;;;;;;14.65;14.00;;;16.20;99.90;;;;;;5033243;28;20036;-83
2023/08/02 08:21:34;;;;;;;14.32;13.63;;;16.20;99.90;;;;;;5035711;28;20040;-82
2023/08/02 08:24:01;;;;;;;14.07;13.48;;;16.30;99.90;;;;;;5033980;28;20525;-81
2023/08/02 08:26:27;;;;;;;13.45;12.85;;;16.20;99.90;;;;;;5033943;28;20047;-81
2023/08/02 08:28:53;;;;;;;13.68;12.98;;;16.20;99.90;;;;;;5035782;28;20037;-80
2023/08/02 08:31:19;;;;;;;12.85;12.25;;;16.20;99.90;;;;;;5036867;28;20045;-81
2023/08/02 08:33:45;;;;;;;13.93;13.13;;;16.20;99.90;;;;;;5034510;28;20037;-80
2023/08/02 08:36:15;;;;;;;14.55;13.70;;;16.20;99.90;;;;;;5035285;28;20033;-79
2023/08/02 08:38:41;;;;;;;13.73;13.02;;;16.20;99.90;;;;;;5035170;28;20037;-80
2023/08/02 08:41:13;;;;;;;13.85;13.25;;;16.20;99.90;;;;;;5038161;28;20048;-81
2023/08/02 08:43:39;;;;;;;16.17;15.35;;;16.30;99.90;;;;;;5031836;28;20096;-81
2023/08/02 08:46:07;;;;;;;16.50;15.70;;;16.30;99.90;;;;;;5034484;28;20033;-81
2023/08/02 08:48:36;;;;;;;14.32;13.63;;;16.30;99.90;;;;;;5032690;28;20056;-80
2023/08/02 08:51:03;;;;;;;15.02;14.23;;;16.40;99.90;;;;;;5035915;28;20034;-81
2023/08/02 08:53:33;;;;;;;16.02;15.23;;;16.40;99.90;;;;;;5035213;28;20029;-80
2023/08/02 08:56:01;;;;;;;14.82;14.13;;;16.40;99.90;;;;;;5035384;28;20037;-82
2023/08/02 08:58:28;;;;;;;16.10;15.30;;;16.40;99.90;;;;;;5037382;28;20041;-80
2023/08/02 09:00:55;;;;;;;16.08;15.38;;;16.50;99.90;;;;;;5030733;28;20045;-80
2023/08/02 09:03:21;;;;;;;19.50;18.52;;;16.50;99.90;;;;;;5034473;28;20051;-84
2023/08/02 09:05:48;;;;;;;18.05;17.25;;;16.50;99.90;;;;;;5036197;28;20056;-81
2023/08/02 09:08:14;;;;;;;17.02;16.23;;;16.60;99.90;;;;;;5022563;28;20040;-81
2023/08/02 09:10:41;;;;;;;16.10;15.40;;;16.60;99.90;;;;;;5034121;28;20030;-82
2023/08/02 09:13:21;;;;;;;15.70;15.00;;;16.60;99.90;;;;;;5052108;28;20033;-82
2023/08/02 09:16:04;;;;;;;16.40;15.70;;;16.70;99.90;;;;;;5033764;28;20513;-82
2023/08/02 09:18:35;;;;;;;16.02;15.23;;;16.70;99.90;;;;;;5037928;28;20033;-81
2023/08/02 09:21:01;;;;;;;15.48;14.65;;;16.70;99.90;;;;;;5033789;28;20053;-81
2023/08/02 09:23:27;;;;;;;15.02;14.32;;;16.80;99.90;;;;;;5035694;28;20044;-82
2023/08/02 09:26:09;;;;;;;15.15;14.43;;;16.90;99.90;;;;;;5049757;28;20113;-82
2023/08/02 09:28:36;;;;;;;16.58;15.82;;;16.90;99.90;;;;;;5031425;28;20042;-82
2023/08/02 09:31:16;;;;;;;16.10;15.40;;;16.90;99.90;;;;;;5036507;28;20034;-82
2023/08/02 09:33:53;;;;;;;15.50;14.80;;;17.00;99.90;;;;;;5035650;28;20045;-80
2023/08/02 09:36:33;;;;;;;16.55;15.60;;;17.00;99.90;;;;;;5040075;28;20520;-83
2023/08/02 09:39:09;;;;;;;;;;;17.10;99.90;;;;;;5043632;28;20051;-81
2023/08/02 09:41:35;;;;;;;15.05;14.35;;;17.20;99.90;;;;;;5038627;28;19908;-82
2023/08/02 09:44:01;;;;;;;15.57;14.77;;;17.10;99.90;;;;;;5035887;28;20036;-81
2023/08/02 09:46:33;;;;;;;13.65;13.05;;;17.20;99.90;;;;;;5054041;28;20041;-83
2023/08/02 09:49:01;;;;;;;14.07;13.48;;;17.10;99.90;;;;;;5038497;28;20033;-81
2023/08/02 09:51:41;;;;;;;16.38;15.57;;;17.20;99.90;;;;;;5038937;28;20040;-81
2023/08/02 09:54:11;;;;;;;15.17;14.57;;;17.10;99.90;;;;;;5033596;28;20157;-83
2023/08/02 09:56:39;;;;;;;16.15;15.27;;;17.00;99.90;;;;;;5038089;28;20386;-83
2023/08/02 09:59:06;;;;;;;15.02;14.32;;;17.00;99.90;;;;;;5038880;28;20454;-83
2023/08/02 10:01:34;;;;;;;15.35;14.65;;;17.10;99.90;;;;;;5040846;28;20382;-82
2023/08/02 10:04:06;;;;;;;15.00;14.30;;;17.10;99.90;;;;;;5037552;28;20043;-81
2023/08/02 10:06:37;;;;;;;15.30;14.35;;;17.00;99.90;;;;;;5041370;28;20049;-82
2023/08/02 10:09:07;;;;;;;14.55;13.75;;;17.00;99.90;;;;;;5032839;28;20409;-84
2023/08/02 10:12:11;;;;;;;15.25;14.50;;;17.10;99.90;;;;;;5036041;28;20048;-82
2023/08/02 10:14:37;;;;;;;14.90;14.10;;;17.20;99.90;;;;;;5030559;28;20061;-82
2023/08/02 10:17:04;;;;;;;13.63;13.02;;;17.20;99.90;;;;;;5039396;28;20037;-82
2023/08/02 10:19:33;;;;;;;15.77;14.98;;;17.30;99.90;;;;;;5040459;28;20033;-82
2023/08/02 10:22:00;;;;;;;14.73;13.93;;;17.30;99.90;;;;;;5031489;28;20041;-82
2023/08/02 10:24:28;;;;;;;15.75;15.00;;;17.40;99.90;;;;;;5036816;28;20042;-82
2023/08/02 10:27:04;;;;;;;15.63;14.93;;;17.50;99.90;;;;;;5034565;28;20364;-80
2023/08/02 10:29:33;;;;;;;16.67;15.77;;;17.50;99.90;;;;;;5036144;28;20030;-82
2023/08/02 10:32:17;;;;;;;15.35;14.65;;;17.50;99.90;;;;;;5055385;28;20417;-81
2023/08/02 10:34:46;;;;;;;15.18;14.52;;;17.50;99.90;;;;;;5035002;28;20025;-80
2023/08/02 10:37:12;;;;;;;14.80;14.10;;;17.60;99.90;;;;;;5033811;28;20518;-82
2023/08/02 10:39:51;;;;;;;14.88;14.18;;;17.60;99.90;;;;;;5039900;28;20037;-82
2023/08/02 10:42:19;;;;;;;15.68;14.88;;;17.70;99.90;;;;;;5038295;28;20037;-81
2023/08/02 10:44:54;;;;;;;14.68;13.90;;;17.70;99.90;;;;;;5043099;28;20467;-80
2023/08/02 10:47:31;;;;;;;16.98;15.98;;;17.60;99.90;;;;;;5035469;28;20033;-83
2023/08/02 10:49:58;;;;;;;15.48;14.77;;;17.70;99.90;;;;;;5037173;28;20040;-83
2023/08/02 10:52:30;;;;;;;15.43;14.73;;;17.70;99.90;;;;;;5038960;28;20033;-85
2023/08/02 10:55:04;;;;;;;14.45;13.75;;;17.80;99.90;;;;;;5036785;28;20030;-82
2023/08/02 10:57:31;;;;;;;14.95;14.25;;;17.80;99.90;;;;;;5037693;28;20048;-83
2023/08/02 10:59:57;;;;;;;14.23;13.52;;;17.90;99.90;;;;;;5037246;28;20053;-82
2023/08/02 11:02:26;;;;;;;15.20;14.50;;;18.00;99.90;;;;;;5035748;28;20042;-82
2023/08/02 11:04:53;;;;;;;13.60;13.00;;;18.00;99.90;;;;;;5039264;28;20037;-81
2023/08/02 11:07:21;;;;;;;13.63;13.02;;;18.10;99.90;;;;;;5034185;28;20037;-83
2023/08/02 11:09:52;;;;;;;15.38;14.68;;;18.00;99.90;;;;;;5037009;28;20513;-82
2023/08/02 11:12:20;;;;;;;13.68;13.10;;;18.00;99.90;;;;;;5036882;28;20041;-83
2023/08/02 11:14:50;;;;;;;15.35;14.65;;;17.90;99.90;;;;;;5038044;28;20046;-80
2023/08/02 11:17:18;;;;;;;15.15;14.50;;;17.90;99.90;;;;;;5035280;28;20391;-85
2023/08/02 11:19:49;;;;;;;12.45;11.90;;;17.90;99.90;;;;;;5037951;28;20036;-81
2023/08/02 11:22:15;;;;;;;13.05;12.55;;;18.00;99.90;;;;;;5037458;28;20390;-80
2023/08/02 11:24:42;;;;;;;13.70;13.10;;;18.00;99.90;;;;;;5037181;28;20037;-80
2023/08/02 11:27:09;;;;;;;13.40;12.73;;;18.00;99.90;;;;;;5052596;28;20065;-84
2023/08/02 11:29:35;;;;;;;13.20;12.60;;;18.00;99.90;;;;;;5035616;28;20040;-83
2023/08/02 11:32:04;;;;;;;13.48;12.85;;;18.00;99.90;;;;;;5038851;28;20060;-81
2023/08/02 11:34:36;;;;;;;12.98;12.27;;;18.00;99.90;;;;;;5039797;28;20034;-81
2023/08/02 11:37:02;;;;;;;13.02;12.43;;;18.00;99.90;;;;;;5035190;28;20037;-84
2023/08/02 11:39:29;;;;;;;14.65;13.95;;;18.00;99.90;;;;;;5035443;28;20040;-84
2023/08/02 11:42:03;;;;;;;13.98;13.27;;;18.10;99.90;;;;;;5039496;28;20032;-79
2023/08/02 11:44:29;;;;;;;14.27;13.52;;;18.10;99.90;;;;;;5038172;28;20032;-83
2023/08/02 11:46:56;;;;;;;14.73;14.13;;;18.20;99.90;;;;;;5037100;28;20037;-79
2023/08/02 11:49:25;;;;;;;13.75;12.95;;;18.20;99.90;;;;;;5035462;28;20045;-81
2023/08/02 11:51:51;;;;;;;15.20;14.40;;;18.20;99.90;;;;;;5039921;28;20029;-81
2023/08/02 11:54:19;;;;;;;15.75;14.88;;;18.30;99.90;;;;;;5034825;28;20064;-80
2023/08/02 11:56:46;;;;;;;14.50;13.90;;;18.20;99.90;;;;;;5038316;28;20033;-79
2023/08/02 11:59:12;;;;;;;15.18;14.48;;;18.20;99.90;;;;;;5032983;28;20486;-82
2023/08/02 12:01:42;;;;;;;16.95;16.25;;;18.30;99.90;;;;;;5036825;28;20551;-82
2023/08/02 12:04:09;;;;;;;17.08;16.27;;;18.30;99.90;;;;;;5039298;28;20056;-82
2023/08/02 12:06:50;;;;;;;15.45;14.63;;;18.40;99.90;;;;;;5037910;28;20030;-83
2023/08/02 12:09:17;;;;;;;16.00;15.10;;;18.60;99.90;;;;;;5036848;28;20051;-82
2023/08/02 12:11:45;;;;;;;16.17;15.38;;;18.60;99.90;;;;;;5036515;28;20028;-86
2023/08/02 12:14:11;;;;;;;15.02;14.35;;;18.60;99.90;;;;;;5036618;28;20029;-83
2023/08/02 12:16:38;;;;;;;14.35;13.65;;;18.60;99.90;;;;;;5035579;28;20047;-80
2023/08/02 12:19:04;;;;;;;14.48;13.77;;;18.60;99.90;;;;;;5031778;28;20029;-80
2023/08/02 12:21:31;;;;;;;13.73;13.13;;;18.70;99.90;;;;;;5037564;28;20029;-79
2023/08/02 12:23:57;;;;;;;15.10;14.40;;;18.70;99.90;;;;;;5036972;28;20060;-80
2023/08/02 12:26:31;;;;;;;15.13;14.43;;;18.60;99.90;;;;;;5039903;28;20041;-80
2023/08/02 12:28:58;;;;;;;15.23;14.43;;;18.70;99.90;;;;;;5035815;28;20471;-80
2023/08/02 12:31:25;;;;;;;16.42;15.68;;;18.80;99.90;;;;;;5035902;28;20393;-81